sensor_id;sensor_type;location;lat;lon;timestamp;temperature;humidity
1626;DHT22;806;48.770;9.156;2023-12-14T00:02:06;7.10;99.90
1626;DHT22;806;48.770;9.156;2023-12-14T00:04:33;7.20;99.90
1626;DHT22;806;48.770;9.156;2023-12-14T00:07:00;7.10;99.90
1626;DHT22;806;48.770;9.156;2023-12-14T00:09:28;7.20;99.90
1626;DHT22;806;48.770;9.156;2023-12-14T00:11:55;7.20;99.90
1626;DHT22;806;48.770;9.156;2023-12-14T00:14:22;7.20;99.90
1626;DHT22;806;48.770;9.156;2023-12-14T00:16:55;7.20;99.90
1626;DHT22;806;48.770;9.156;2023-12-14T00:19:24;7.30;99.90
1626;DHT22;806;48.770;9.156;2023-12-14T00:21:51;7.30;99.90
1626;DHT22;806;48.770;9.156;2023-12-14T00:24:18;7.20;99.90
1626;DHT22;806;48.770;9.156;2023-12-14T00:26:46;7.10;99.90
1626;DHT22;806;48.770;9.156;2023-12-14T00:29:13;7.10;99.90
1626;DHT22;806;48.770;9.156;2023-12-14T00:31:40;7.20;99.90
1626;DHT22;806;48.770;9.156;2023-12-14T00:34:07;7.10;99.90
1626;DHT22;806;48.770;9.156;2023-12-14T00:36:34;7.00;99.90
1626;DHT22;806;48.770;9.156;2023-12-14T00:39:02;6.90;99.90
1626;DHT22;806;48.770;9.156;2023-12-14T00:41:29;7.00;99.90
1626;DHT22;806;48.770;9.156;2023-12-14T00:43:57;7.10;99.90
1626;DHT22;806;48.770;9.156;2023-12-14T00:46:24;7.00;99.90
1626;DHT22;806;48.770;9.156;2023-12-14T00:48:51;7.00;99.90
1626;DHT22;806;48.770;9.156;2023-12-14T00:51:18;7.00;99.90
1626;DHT22;806;48.770;9.156;2023-12-14T00:53:45;6.90;99.90
1626;DHT22;806;48.770;9.156;2023-12-14T00:56:12;7.00;99.90
1626;DHT22;806;48.770;9.156;2023-12-14T00:58:39;7.00;99.90
1626;DHT22;806;48.770;9.156;2023-12-14T01:01:07;7.10;99.90
1626;DHT22;806;48.770;9.156;2023-12-14T01:03:34;7.10;99.90
1626;DHT22;806;48.770;9.156;2023-12-14T01:06:01;7.10;99.90
1626;DHT22;806;48.770;9.156;2023-12-14T01:08:28;7.10;99.90
1626;DHT22;806;48.770;9.156;2023-12-14T01:10:55;7.00;99.90
1626;DHT22;806;48.770;9.156;2023-12-14T01:13:22;6.90;99.90
1626;DHT22;806;48.770;9.156;2023-12-14T01:15:49;6.90;99.90
1626;DHT22;806;48.770;9.156;2023-12-14T01:18:18;6.90;99.90
1626;DHT22;806;48.770;9.156;2023-12-14T01:20:45;7.00;99.90
1626;DHT22;806;48.770;9.156;2023-12-14T01:23:12;7.20;99.90
1626;DHT22;806;48.770;9.156;2023-12-14T01:25:39;7.30;99.90
1626;DHT22;806;48.770;9.156;2023-12-14T01:28:06;7.40;99.90
1626;DHT22;806;48.770;9.156;2023-12-14T01:30:34;7.40;99.90
1626;DHT22;806;48.770;9.156;2023-12-14T01:33:01;7.40;99.90
1626;DHT22;806;48.770;9.156;2023-12-14T01:35:29;7.50;99.90
1626;DHT22;806;48.770;9.156;2023-12-14T01:37:56;7.60;99.90
1626;DHT22;806;48.770;9.156;2023-12-14T01:40:23;7.60;99.90
1626;DHT22;806;48.770;9.156;2023-12-14T01:42:50;7.60;99.90
1626;DHT22;806;48.770;9.156;2023-12-14T01:45:17;7.60;99.90
1626;DHT22;806;48.770;9.156;2023-12-14T01:47:44;7.50;99.90
1626;DHT22;806;48.770;9.156;2023-12-14T01:50:11;7.60;99.90
1626;DHT22;806;48.770;9.156;2023-12-14T01:52:39;7.60;99.90
1626;DHT22;806;48.770;9.156;2023-12-14T01:55:07;7.60;99.90
1626;DHT22;806;48.770;9.156;2023-12-14T01:57:34;7.70;99.90
1626;DHT22;806;48.770;9.156;2023-12-14T02:00:01;7.70;99.90
1626;DHT22;806;48.770;9.156;2023-12-14T02:02:28;7.50;99.90
1626;DHT22;806;48.770;9.156;2023-12-14T02:04:55;7.50;99.90
1626;DHT22;806;48.770;9.156;2023-12-14T02:07:22;7.50;99.90
1626;DHT22;806;48.770;9.156;2023-12-14T02:09:50;7.40;99.90
1626;DHT22;806;48.770;9.156;2023-12-14T02:12:17;7.50;99.90
1626;DHT22;806;48.770;9.156;2023-12-14T02:14:44;7.40;99.90
1626;DHT22;806;48.770;9.156;2023-12-14T02:17:11;7.40;99.90
1626;DHT22;806;48.770;9.156;2023-12-14T02:19:38;7.50;99.90
1626;DHT22;806;48.770;9.156;2023-12-14T02:22:05;7.60;99.90
1626;DHT22;806;48.770;9.156;2023-12-14T02:24:34;7.60;99.90
1626;DHT22;806;48.770;9.156;2023-12-14T02:27:01;7.50;99.90
1626;DHT22;806;48.770;9.156;2023-12-14T02:29:28;7.60;99.90
1626;DHT22;806;48.770;9.156;2023-12-14T02:31:55;7.70;99.90
1626;DHT22;806;48.770;9.156;2023-12-14T02:34:22;7.50;99.90
1626;DHT22;806;48.770;9.156;2023-12-14T02:36:50;7.50;99.90
1626;DHT22;806;48.770;9.156;2023-12-14T02:39:17;7.50;99.90
1626;DHT22;806;48.770;9.156;2023-12-14T02:41:46;7.50;99.90
1626;DHT22;806;48.770;9.156;2023-12-14T02:44:13;7.40;99.90
1626;DHT22;806;48.770;9.156;2023-12-14T02:46:40;7.40;99.90
1626;DHT22;806;48.770;9.156;2023-12-14T02:49:07;7.30;99.90
1626;DHT22;806;48.770;9.156;2023-12-14T02:51:34;7.20;99.90
1626;DHT22;806;48.770;9.156;2023-12-14T02:54:00;7.30;99.90
1626;DHT22;806;48.770;9.156;2023-12-14T02:56:27;7.30;99.90
1626;DHT22;806;48.770;9.156;2023-12-14T02:58:56;7.30;99.90
1626;DHT22;806;48.770;9.156;2023-12-14T03:01:23;7.30;99.90
1626;DHT22;806;48.770;9.156;2023-12-14T03:03:50;7.40;99.90
1626;DHT22;806;48.770;9.156;2023-12-14T03:06:17;7.40;99.90
1626;DHT22;806;48.770;9.156;2023-12-14T03:08:44;7.40;99.90
1626;DHT22;806;48.770;9.156;2023-12-14T03:11:21;7.50;99.90
1626;DHT22;806;48.770;9.156;2023-12-14T03:13:48;7.70;99.90
1626;DHT22;806;48.770;9.156;2023-12-14T03:16:17;7.70;99.90
1626;DHT22;806;48.770;9.156;2023-12-14T03:18:44;7.90;99.90
1626;DHT22;806;48.770;9.156;2023-12-14T03:21:11;8.00;99.90
1626;DHT22;806;48.770;9.156;2023-12-14T03:23:38;8.00;99.90
1626;DHT22;806;48.770;9.156;2023-12-14T03:26:05;8.10;99.90
1626;DHT22;806;48.770;9.156;2023-12-14T03:28:32;8.00;99.90
1626;DHT22;806;48.770;9.156;2023-12-14T03:31:00;7.80;99.90
1626;DHT22;806;48.770;9.156;2023-12-14T03:33:28;7.70;99.90
1626;DHT22;806;48.770;9.156;2023-12-14T03:35:56;7.50;99.90
1626;DHT22;806;48.770;9.156;2023-12-14T03:38:23;7.40;99.90
1626;DHT22;806;48.770;9.156;2023-12-14T03:40:50;7.40;99.90
1626;DHT22;806;48.770;9.156;2023-12-14T03:43:17;7.50;99.90
1626;DHT22;806;48.770;9.156;2023-12-14T03:45:44;7.60;99.90
1626;DHT22;806;48.770;9.156;2023-12-14T03:48:11;7.70;99.90
1626;DHT22;806;48.770;9.156;2023-12-14T03:50:39;7.80;99.90
1626;DHT22;806;48.770;9.156;2023-12-14T03:53:06;7.80;99.90
1626;DHT22;806;48.770;9.156;2023-12-14T03:55:33;7.90;99.90
1626;DHT22;806;48.770;9.156;2023-12-14T03:58:01;8.00;99.90
1626;DHT22;806;48.770;9.156;2023-12-14T04:00:28;7.90;99.90
1626;DHT22;806;48.770;9.156;2023-12-14T04:02:55;7.80;99.90
1626;DHT22;806;48.770;9.156;2023-12-14T04:05:22;7.70;99.90
1626;DHT22;806;48.770;9.156;2023-12-14T04:07:51;7.70;99.90
1626;DHT22;806;48.770;9.156;2023-12-14T04:10:18;7.60;99.90
1626;DHT22;806;48.770;9.156;2023-12-14T04:12:45;7.70;99.90
1626;DHT22;806;48.770;9.156;2023-12-14T04:15:12;7.60;99.90
1626;DHT22;806;48.770;9.156;2023-12-14T04:17:39;7.60;99.90
1626;DHT22;806;48.770;9.156;2023-12-14T04:20:07;7.50;99.90
1626;DHT22;806;48.770;9.156;2023-12-14T04:22:34;7.50;99.90
1626;DHT22;806;48.770;9.156;2023-12-14T04:25:02;7.50;99.90
1626;DHT22;806;48.770;9.156;2023-12-14T04:27:29;7.60;99.90
1626;DHT22;806;48.770;9.156;2023-12-14T04:29:56;7.70;99.90
1626;DHT22;806;48.770;9.156;2023-12-14T04:32:23;7.70;99.90
1626;DHT22;806;48.770;9.156;2023-12-14T04:34:50;7.80;99.90
1626;DHT22;806;48.770;9.156;2023-12-14T04:37:17;7.80;99.90
1626;DHT22;806;48.770;9.156;2023-12-14T04:39:44;7.90;99.90
1626;DHT22;806;48.770;9.156;2023-12-14T04:42:13;8.00;99.90
1626;DHT22;806;48.770;9.156;2023-12-14T04:44:40;8.10;99.90
1626;DHT22;806;48.770;9.156;2023-12-14T04:47:07;8.10;99.90
1626;DHT22;806;48.770;9.156;2023-12-14T04:49:34;7.90;99.90
1626;DHT22;806;48.770;9.156;2023-12-14T04:52:02;7.80;99.90
1626;DHT22;806;48.770;9.156;2023-12-14T04:54:29;7.80;99.90
1626;DHT22;806;48.770;9.156;2023-12-14T04:56:55;7.90;99.90
1626;DHT22;806;48.770;9.156;2023-12-14T04:59:24;7.90;99.90
1626;DHT22;806;48.770;9.156;2023-12-14T05:01:51;7.90;99.90
1626;DHT22;806;48.770;9.156;2023-12-14T05:04:18;8.00;99.90
1626;DHT22;806;48.770;9.156;2023-12-14T05:06:47;8.00;99.90
1626;DHT22;806;48.770;9.156;2023-12-14T05:09:14;8.10;99.90
1626;DHT22;806;48.770;9.156;2023-12-14T05:11:42;8.10;99.90
1626;DHT22;806;48.770;9.156;2023-12-14T05:14:09;8.10;99.90
1626;DHT22;806;48.770;9.156;2023-12-14T05:16:38;8.10;99.90
1626;DHT22;806;48.770;9.156;2023-12-14T05:19:05;8.00;99.90
1626;DHT22;806;48.770;9.156;2023-12-14T05:21:32;7.80;99.90
1626;DHT22;806;48.770;9.156;2023-12-14T05:23:59;7.70;99.90
1626;DHT22;806;48.770;9.156;2023-12-14T05:26:26;7.60;99.90
1626;DHT22;806;48.770;9.156;2023-12-14T05:28:53;7.60;99.90
1626;DHT22;806;48.770;9.156;2023-12-14T05:31:20;7.60;99.90
1626;DHT22;806;48.770;9.156;2023-12-14T05:33:48;7.60;99.90
1626;DHT22;806;48.770;9.156;2023-12-14T05:36:15;7.50;99.90
1626;DHT22;806;48.770;9.156;2023-12-14T05:38:43;7.50;99.90
1626;DHT22;806;48.770;9.156;2023-12-14T05:41:10;7.40;99.90
1626;DHT22;806;48.770;9.156;2023-12-14T05:43:37;7.50;99.90
1626;DHT22;806;48.770;9.156;2023-12-14T05:46:04;7.50;99.90
1626;DHT22;806;48.770;9.156;2023-12-14T05:48:31;7.50;99.90
1626;DHT22;806;48.770;9.156;2023-12-14T05:51:00;7.50;99.90
1626;DHT22;806;48.770;9.156;2023-12-14T05:53:27;7.60;99.90
1626;DHT22;806;48.770;9.156;2023-12-14T05:55:54;7.70;99.90
1626;DHT22;806;48.770;9.156;2023-12-14T05:58:22;7.50;99.90
1626;DHT22;806;48.770;9.156;2023-12-14T06:00:49;7.60;99.90
1626;DHT22;806;48.770;9.156;2023-12-14T06:03:16;7.60;99.90
1626;DHT22;806;48.770;9.156;2023-12-14T06:05:43;7.60;99.90
1626;DHT22;806;48.770;9.156;2023-12-14T06:08:12;7.50;99.90
1626;DHT22;806;48.770;9.156;2023-12-14T06:10:39;7.50;99.90
1626;DHT22;806;48.770;9.156;2023-12-14T06:13:06;7.40;99.90
1626;DHT22;806;48.770;9.156;2023-12-14T06:15:33;7.40;99.90
1626;DHT22;806;48.770;9.156;2023-12-14T06:18:00;7.50;99.90
1626;DHT22;806;48.770;9.156;2023-12-14T06:20:27;7.50;99.90
1626;DHT22;806;48.770;9.156;2023-12-14T06:22:54;7.50;99.90
1626;DHT22;806;48.770;9.156;2023-12-14T06:25:22;7.40;99.90
1626;DHT22;806;48.770;9.156;2023-12-14T06:27:55;7.50;99.90
1626;DHT22;806;48.770;9.156;2023-12-14T06:30:22;7.60;99.90
1626;DHT22;806;48.770;9.156;2023-12-14T06:32:49;7.80;99.90
1626;DHT22;806;48.770;9.156;2023-12-14T06:35:16;7.90;99.90
1626;DHT22;806;48.770;9.156;2023-12-14T06:37:43;8.00;99.90
1626;DHT22;806;48.770;9.156;2023-12-14T06:40:11;8.10;99.90
1626;DHT22;806;48.770;9.156;2023-12-14T06:42:39;8.10;99.90
1626;DHT22;806;48.770;9.156;2023-12-14T06:45:08;8.20;99.90
1626;DHT22;806;48.770;9.156;2023-12-14T06:47:36;8.10;99.90
1626;DHT22;806;48.770;9.156;2023-12-14T06:50:04;8.10;99.90
1626;DHT22;806;48.770;9.156;2023-12-14T06:52:31;8.10;99.90
1626;DHT22;806;48.770;9.156;2023-12-14T06:54:58;8.00;99.90
1626;DHT22;806;48.770;9.156;2023-12-14T06:57:25;7.90;99.90
1626;DHT22;806;48.770;9.156;2023-12-14T06:59:53;7.80;99.90
1626;DHT22;806;48.770;9.156;2023-12-14T07:02:20;8.00;99.90
1626;DHT22;806;48.770;9.156;2023-12-14T07:04:47;8.10;99.90
1626;DHT22;806;48.770;9.156;2023-12-14T07:07:15;8.30;99.90
1626;DHT22;806;48.770;9.156;2023-12-14T07:09:42;8.30;99.90
1626;DHT22;806;48.770;9.156;2023-12-14T07:12:11;8.10;99.90
1626;DHT22;806;48.770;9.156;2023-12-14T07:14:39;8.20;99.90
1626;DHT22;806;48.770;9.156;2023-12-14T07:17:07;8.30;99.90
1626;DHT22;806;48.770;9.156;2023-12-14T07:19:34;8.30;99.90
1626;DHT22;806;48.770;9.156;2023-12-14T07:22:01;8.10;99.90
1626;DHT22;806;48.770;9.156;2023-12-14T07:24:28;8.00;99.90
1626;DHT22;806;48.770;9.156;2023-12-14T07:26:56;7.90;99.90
1626;DHT22;806;48.770;9.156;2023-12-14T07:29:23;7.80;99.90
1626;DHT22;806;48.770;9.156;2023-12-14T07:31:50;7.60;99.90
1626;DHT22;806;48.770;9.156;2023-12-14T07:34:18;7.60;99.90
1626;DHT22;806;48.770;9.156;2023-12-14T07:36:46;7.50;99.90
1626;DHT22;806;48.770;9.156;2023-12-14T07:39:13;7.50;99.90
1626;DHT22;806;48.770;9.156;2023-12-14T07:41:40;7.70;99.90
1626;DHT22;806;48.770;9.156;2023-12-14T07:44:07;7.80;99.90
1626;DHT22;806;48.770;9.156;2023-12-14T07:46:34;8.20;99.90
1626;DHT22;806;48.770;9.156;2023-12-14T07:49:05;8.30;99.90
1626;DHT22;806;48.770;9.156;2023-12-14T07:51:33;8.10;99.90
1626;DHT22;806;48.770;9.156;2023-12-14T07:54:00;8.00;99.90
1626;DHT22;806;48.770;9.156;2023-12-14T07:56:29;8.00;99.90
1626;DHT22;806;48.770;9.156;2023-12-14T07:58:56;7.90;99.90
1626;DHT22;806;48.770;9.156;2023-12-14T08:01:23;7.80;99.90
1626;DHT22;806;48.770;9.156;2023-12-14T08:03:50;7.70;99.90
1626;DHT22;806;48.770;9.156;2023-12-14T08:06:17;7.60;99.90
1626;DHT22;806;48.770;9.156;2023-12-14T08:08:45;7.50;99.90
1626;DHT22;806;48.770;9.156;2023-12-14T08:11:12;7.40;99.90
1626;DHT22;806;48.770;9.156;2023-12-14T08:13:39;7.30;99.90
1626;DHT22;806;48.770;9.156;2023-12-14T08:16:07;7.30;99.90
1626;DHT22;806;48.770;9.156;2023-12-14T08:18:36;7.30;99.90
1626;DHT22;806;48.770;9.156;2023-12-14T08:21:04;7.30;99.90
1626;DHT22;806;48.770;9.156;2023-12-14T08:23:31;7.30;99.90
1626;DHT22;806;48.770;9.156;2023-12-14T08:25:59;7.20;99.90
1626;DHT22;806;48.770;9.156;2023-12-14T08:28:26;7.20;99.90
1626;DHT22;806;48.770;9.156;2023-12-14T08:30:53;7.20;99.90
1626;DHT22;806;48.770;9.156;2023-12-14T08:33:20;7.20;99.90
1626;DHT22;806;48.770;9.156;2023-12-14T08:35:47;7.20;99.90
1626;DHT22;806;48.770;9.156;2023-12-14T08:38:14;7.20;99.90
1626;DHT22;806;48.770;9.156;2023-12-14T08:40:42;7.50;99.90
1626;DHT22;806;48.770;9.156;2023-12-14T08:43:10;7.70;99.90
1626;DHT22;806;48.770;9.156;2023-12-14T08:45:45;7.60;99.90
1626;DHT22;806;48.770;9.156;2023-12-14T08:48:14;7.40;99.90
1626;DHT22;806;48.770;9.156;2023-12-14T08:50:41;7.40;99.90
1626;DHT22;806;48.770;9.156;2023-12-14T08:53:08;7.40;99.90
1626;DHT22;806;48.770;9.156;2023-12-14T08:55:35;7.30;99.90
1626;DHT22;806;48.770;9.156;2023-12-14T08:58:02;7.40;99.90
1626;DHT22;806;48.770;9.156;2023-12-14T09:00:30;7.60;99.90
1626;DHT22;806;48.770;9.156;2023-12-14T09:02:57;8.10;99.90
1626;DHT22;806;48.770;9.156;2023-12-14T09:05:24;8.30;99.90
1626;DHT22;806;48.770;9.156;2023-12-14T09:07:52;8.20;99.90
1626;DHT22;806;48.770;9.156;2023-12-14T09:10:21;8.30;99.90
1626;DHT22;806;48.770;9.156;2023-12-14T09:12:48;8.40;99.90
1626;DHT22;806;48.770;9.156;2023-12-14T09:15:15;8.60;99.90
1626;DHT22;806;48.770;9.156;2023-12-14T09:17:44;8.70;99.90
1626;DHT22;806;48.770;9.156;2023-12-14T09:20:11;8.60;99.90
1626;DHT22;806;48.770;9.156;2023-12-14T09:22:38;8.80;99.90
1626;DHT22;806;48.770;9.156;2023-12-14T09:25:06;8.80;99.90
1626;DHT22;806;48.770;9.156;2023-12-14T09:27:35;9.10;99.90
1626;DHT22;806;48.770;9.156;2023-12-14T09:30:02;9.00;99.90
1626;DHT22;806;48.770;9.156;2023-12-14T09:32:30;8.80;99.90
1626;DHT22;806;48.770;9.156;2023-12-14T09:34:58;8.70;99.90
1626;DHT22;806;48.770;9.156;2023-12-14T09:37:25;8.70;99.90
1626;DHT22;806;48.770;9.156;2023-12-14T09:39:52;8.80;99.90
1626;DHT22;806;48.770;9.156;2023-12-14T09:42:21;8.60;99.90
1626;DHT22;806;48.770;9.156;2023-12-14T09:44:48;8.50;99.90
1626;DHT22;806;48.770;9.156;2023-12-14T09:47:15;8.60;99.90
1626;DHT22;806;48.770;9.156;2023-12-14T09:49:43;8.70;99.90
1626;DHT22;806;48.770;9.156;2023-12-14T09:52:13;8.70;99.90
1626;DHT22;806;48.770;9.156;2023-12-14T09:54:40;8.70;99.90
1626;DHT22;806;48.770;9.156;2023-12-14T09:57:07;8.70;99.90
1626;DHT22;806;48.770;9.156;2023-12-14T09:59:34;8.80;99.90
1626;DHT22;806;48.770;9.156;2023-12-14T10:02:10;8.70;99.90
1626;DHT22;806;48.770;9.156;2023-12-14T10:04:37;8.80;99.90
1626;DHT22;806;48.770;9.156;2023-12-14T10:07:04;8.80;99.90
1626;DHT22;806;48.770;9.156;2023-12-14T10:09:34;8.90;99.90
1626;DHT22;806;48.770;9.156;2023-12-14T10:12:04;9.00;99.90
1626;DHT22;806;48.770;9.156;2023-12-14T10:14:32;9.10;99.90
1626;DHT22;806;48.770;9.156;2023-12-14T10:17:14;9.30;99.90
1626;DHT22;806;48.770;9.156;2023-12-14T10:19:42;9.40;99.90
1626;DHT22;806;48.770;9.156;2023-12-14T10:22:10;9.40;99.90
1626;DHT22;806;48.770;9.156;2023-12-14T10:24:38;9.40;99.90
1626;DHT22;806;48.770;9.156;2023-12-14T10:27:06;9.30;99.90
1626;DHT22;806;48.770;9.156;2023-12-14T10:29:34;9.30;99.90
1626;DHT22;806;48.770;9.156;2023-12-14T10:32:03;9.30;99.90
1626;DHT22;806;48.770;9.156;2023-12-14T10:34:32;9.40;99.90
1626;DHT22;806;48.770;9.156;2023-12-14T10:36:59;9.40;99.90
1626;DHT22;806;48.770;9.156;2023-12-14T10:39:29;9.50;99.90
1626;DHT22;806;48.770;9.156;2023-12-14T10:41:58;9.60;99.90
1626;DHT22;806;48.770;9.156;2023-12-14T10:44:30;9.50;99.90
1626;DHT22;806;48.770;9.156;2023-12-14T10:47:03;9.50;99.90
1626;DHT22;806;48.770;9.156;2023-12-14T10:49:31;9.50;99.90
1626;DHT22;806;48.770;9.156;2023-12-14T10:52:01;9.50;99.90
1626;DHT22;806;48.770;9.156;2023-12-14T10:54:32;9.50;99.90
1626;DHT22;806;48.770;9.156;2023-12-14T10:57:02;9.60;99.90
1626;DHT22;806;48.770;9.156;2023-12-14T10:59:31;9.60;99.90
1626;DHT22;806;48.770;9.156;2023-12-14T11:01:58;9.50;99.90
1626;DHT22;806;48.770;9.156;2023-12-14T11:04:26;9.50;99.90
1626;DHT22;806;48.770;9.156;2023-12-14T11:06:54;9.50;99.90
1626;DHT22;806;48.770;9.156;2023-12-14T11:09:22;9.50;99.90
1626;DHT22;806;48.770;9.156;2023-12-14T11:11:55;9.50;99.90
1626;DHT22;806;48.770;9.156;2023-12-14T11:14:27;9.50;99.90
1626;DHT22;806;48.770;9.156;2023-12-14T11:16:55;9.60;99.90
1626;DHT22;806;48.770;9.156;2023-12-14T11:19:29;9.70;99.90
1626;DHT22;806;48.770;9.156;2023-12-14T11:22:23;9.70;99.90
1626;DHT22;806;48.770;9.156;2023-12-14T11:24:54;9.60;99.90
1626;DHT22;806;48.770;9.156;2023-12-14T11:27:31;9.50;99.90
1626;DHT22;806;48.770;9.156;2023-12-14T11:30:00;9.50;99.90
1626;DHT22;806;48.770;9.156;2023-12-14T11:32:28;9.60;99.90
1626;DHT22;806;48.770;9.156;2023-12-14T11:34:56;9.60;99.90
1626;DHT22;806;48.770;9.156;2023-12-14T11:37:23;9.70;99.90
1626;DHT22;806;48.770;9.156;2023-12-14T11:39:51;9.70;99.90
1626;DHT22;806;48.770;9.156;2023-12-14T11:42:20;9.80;99.90
1626;DHT22;806;48.770;9.156;2023-12-14T11:44:47;9.80;99.90
1626;DHT22;806;48.770;9.156;2023-12-14T11:47:15;9.80;99.90
1626;DHT22;806;48.770;9.156;2023-12-14T11:49:43;9.70;99.90
1626;DHT22;806;48.770;9.156;2023-12-14T11:52:10;9.70;99.90
1626;DHT22;806;48.770;9.156;2023-12-14T11:54:37;9.70;99.90
1626;DHT22;806;48.770;9.156;2023-12-14T11:57:04;9.70;99.90
1626;DHT22;806;48.770;9.156;2023-12-14T11:59:35;9.70;99.90
1626;DHT22;806;48.770;9.156;2023-12-14T12:02:03;9.70;99.90
1626;DHT22;806;48.770;9.156;2023-12-14T12:04:31;9.70;99.90
1626;DHT22;806;48.770;9.156;2023-12-14T12:07:03;9.70;99.90
1626;DHT22;806;48.770;9.156;2023-12-14T12:09:37;9.60;61.00
1626;DHT22;806;48.770;9.156;2023-12-14T12:12:07;9.60;56.80
1626;DHT22;806;48.770;9.156;2023-12-14T12:14:35;9.60;62.70
1626;DHT22;806;48.770;9.156;2023-12-14T12:17:02;9.60;33.90
1626;DHT22;806;48.770;9.156;2023-12-14T12:19:33;9.50;36.90
1626;DHT22;806;48.770;9.156;2023-12-14T12:22:00;9.40;55.00
1626;DHT22;806;48.770;9.156;2023-12-14T12:24:27;9.50;43.80
1626;DHT22;806;48.770;9.156;2023-12-14T12:26:54;9.40;56.50
1626;DHT22;806;48.770;9.156;2023-12-14T12:29:21;9.30;69.30
1626;DHT22;806;48.770;9.156;2023-12-14T12:31:48;9.50;58.50
1626;DHT22;806;48.770;9.156;2023-12-14T12:34:15;9.50;58.10
1626;DHT22;806;48.770;9.156;2023-12-14T12:36:44;9.50;86.80
1626;DHT22;806;48.770;9.156;2023-12-14T12:39:13;9.50;70.70
1626;DHT22;806;48.770;9.156;2023-12-14T12:41:40;9.50;39.50
1626;DHT22;806;48.770;9.156;2023-12-14T12:44:07;9.20;1.00
1626;DHT22;806;48.770;9.156;2023-12-14T12:46:34;8.90;25.60
1626;DHT22;806;48.770;9.156;2023-12-14T12:49:04;8.80;49.40
1626;DHT22;806;48.770;9.156;2023-12-14T12:51:32;8.80;55.70
1626;DHT22;806;48.770;9.156;2023-12-14T12:54:00;8.80;96.50
1626;DHT22;806;48.770;9.156;2023-12-14T12:56:29;9.00;99.90
1626;DHT22;806;48.770;9.156;2023-12-14T12:58:56;9.10;98.40
1626;DHT22;806;48.770;9.156;2023-12-14T13:01:23;9.00;88.10
1626;DHT22;806;48.770;9.156;2023-12-14T13:03:53;8.80;96.40
1626;DHT22;806;48.770;9.156;2023-12-14T13:06:23;8.80;99.90
1626;DHT22;806;48.770;9.156;2023-12-14T13:08:50;8.70;99.20
1626;DHT22;806;48.770;9.156;2023-12-14T13:11:19;8.70;99.90
1626;DHT22;806;48.770;9.156;2023-12-14T13:13:46;8.70;99.90
1626;DHT22;806;48.770;9.156;2023-12-14T13:16:13;8.80;99.90
1626;DHT22;806;48.770;9.156;2023-12-14T13:18:42;8.70;99.90
1626;DHT22;806;48.770;9.156;2023-12-14T13:21:09;8.60;99.90
1626;DHT22;806;48.770;9.156;2023-12-14T13:23:36;8.50;99.90
1626;DHT22;806;48.770;9.156;2023-12-14T13:26:04;8.40;99.90
1626;DHT22;806;48.770;9.156;2023-12-14T13:28:32;8.40;99.90
1626;DHT22;806;48.770;9.156;2023-12-14T13:30:59;8.30;99.90
1626;DHT22;806;48.770;9.156;2023-12-14T13:33:26;8.30;99.90
1626;DHT22;806;48.770;9.156;2023-12-14T13:35:53;8.40;99.90
1626;DHT22;806;48.770;9.156;2023-12-14T13:38:20;8.40;99.90
1626;DHT22;806;48.770;9.156;2023-12-14T13:40:47;8.40;99.90
1626;DHT22;806;48.770;9.156;2023-12-14T13:43:14;8.50;99.90
1626;DHT22;806;48.770;9.156;2023-12-14T13:45:43;8.40;99.90
1626;DHT22;806;48.770;9.156;2023-12-14T13:48:10;8.40;99.90
1626;DHT22;806;48.770;9.156;2023-12-14T13:50:37;8.30;99.90
1626;DHT22;806;48.770;9.156;2023-12-14T13:53:04;8.30;99.90
1626;DHT22;806;48.770;9.156;2023-12-14T13:55:31;8.20;99.90
1626;DHT22;806;48.770;9.156;2023-12-14T13:57:58;8.20;99.90
1626;DHT22;806;48.770;9.156;2023-12-14T14:00:26;8.40;99.90
1626;DHT22;806;48.770;9.156;2023-12-14T14:02:55;8.30;99.90
1626;DHT22;806;48.770;9.156;2023-12-14T14:05:22;8.30;99.90
1626;DHT22;806;48.770;9.156;2023-12-14T14:07:49;8.30;99.90
1626;DHT22;806;48.770;9.156;2023-12-14T14:10:17;8.40;99.90
1626;DHT22;806;48.770;9.156;2023-12-14T14:12:45;8.30;99.90
1626;DHT22;806;48.770;9.156;2023-12-14T14:15:12;8.30;99.90
1626;DHT22;806;48.770;9.156;2023-12-14T14:17:43;8.40;99.90
1626;DHT22;806;48.770;9.156;2023-12-14T14:20:11;8.50;99.90
1626;DHT22;806;48.770;9.156;2023-12-14T14:22:38;8.50;99.90
1626;DHT22;806;48.770;9.156;2023-12-14T14:25:06;8.60;99.90
1626;DHT22;806;48.770;9.156;2023-12-14T14:27:34;8.60;99.90
1626;DHT22;806;48.770;9.156;2023-12-14T14:30:01;8.70;99.90
1626;DHT22;806;48.770;9.156;2023-12-14T14:32:28;8.80;99.90
1626;DHT22;806;48.770;9.156;2023-12-14T14:34:57;8.90;99.90
1626;DHT22;806;48.770;9.156;2023-12-14T14:37:27;8.90;99.90
1626;DHT22;806;48.770;9.156;2023-12-14T14:39:54;8.90;99.90
1626;DHT22;806;48.770;9.156;2023-12-14T14:42:21;8.80;99.90
1626;DHT22;806;48.770;9.156;2023-12-14T14:44:48;8.80;99.90
1626;DHT22;806;48.770;9.156;2023-12-14T14:47:15;8.80;99.90
1626;DHT22;806;48.770;9.156;2023-12-14T14:49:43;8.50;99.90
1626;DHT22;806;48.770;9.156;2023-12-14T14:52:10;8.50;99.90
1626;DHT22;806;48.770;9.156;2023-12-14T14:54:38;8.50;99.90
1626;DHT22;806;48.770;9.156;2023-12-14T14:57:05;8.40;99.90
1626;DHT22;806;48.770;9.156;2023-12-14T14:59:32;8.40;99.90
1626;DHT22;806;48.770;9.156;2023-12-14T15:02:00;8.50;99.90
1626;DHT22;806;48.770;9.156;2023-12-14T15:04:27;8.40;99.90
1626;DHT22;806;48.770;9.156;2023-12-14T15:06:54;8.60;99.90
1626;DHT22;806;48.770;9.156;2023-12-14T15:09:21;8.60;99.90
1626;DHT22;806;48.770;9.156;2023-12-14T15:11:50;8.60;99.90
1626;DHT22;806;48.770;9.156;2023-12-14T15:14:17;8.60;99.90
1626;DHT22;806;48.770;9.156;2023-12-14T15:16:44;8.50;99.90
1626;DHT22;806;48.770;9.156;2023-12-14T15:19:12;8.60;99.90
1626;DHT22;806;48.770;9.156;2023-12-14T15:21:39;8.70;99.90
1626;DHT22;806;48.770;9.156;2023-12-14T15:24:06;8.70;99.90
1626;DHT22;806;48.770;9.156;2023-12-14T15:26:34;8.70;99.90
1626;DHT22;806;48.770;9.156;2023-12-14T15:29:02;8.70;99.90
1626;DHT22;806;48.770;9.156;2023-12-14T15:31:30;8.60;99.90
1626;DHT22;806;48.770;9.156;2023-12-14T15:33:58;8.40;99.90
1626;DHT22;806;48.770;9.156;2023-12-14T15:36:26;8.40;99.90
1626;DHT22;806;48.770;9.156;2023-12-14T15:38:55;8.50;99.90
1626;DHT22;806;48.770;9.156;2023-12-14T15:41:22;8.70;99.90
1626;DHT22;806;48.770;9.156;2023-12-14T15:43:49;8.70;99.90
1626;DHT22;806;48.770;9.156;2023-12-14T15:46:18;8.80;99.90
1626;DHT22;806;48.770;9.156;2023-12-14T15:48:45;8.80;99.90
1626;DHT22;806;48.770;9.156;2023-12-14T15:51:12;8.70;99.90
1626;DHT22;806;48.770;9.156;2023-12-14T15:53:39;8.60;99.90
1626;DHT22;806;48.770;9.156;2023-12-14T15:56:07;8.60;99.90
1626;DHT22;806;48.770;9.156;2023-12-14T15:58:34;8.60;99.90
1626;DHT22;806;48.770;9.156;2023-12-14T16:01:01;8.60;99.90
1626;DHT22;806;48.770;9.156;2023-12-14T16:03:29;8.50;99.90
1626;DHT22;806;48.770;9.156;2023-12-14T16:05:56;8.40;99.90
1626;DHT22;806;48.770;9.156;2023-12-14T16:08:23;8.50;99.90
1626;DHT22;806;48.770;9.156;2023-12-14T16:10:50;8.60;99.90
1626;DHT22;806;48.770;9.156;2023-12-14T16:13:19;8.70;99.90
1626;DHT22;806;48.770;9.156;2023-12-14T16:15:46;8.80;99.90
1626;DHT22;806;48.770;9.156;2023-12-14T16:18:13;8.80;99.90
1626;DHT22;806;48.770;9.156;2023-12-14T16:20:41;8.70;99.90
1626;DHT22;806;48.770;9.156;2023-12-14T16:23:08;8.50;99.90
1626;DHT22;806;48.770;9.156;2023-12-14T16:25:35;8.60;99.90
1626;DHT22;806;48.770;9.156;2023-12-14T16:28:02;8.50;99.90
1626;DHT22;806;48.770;9.156;2023-12-14T16:30:30;8.30;99.90
1626;DHT22;806;48.770;9.156;2023-12-14T16:32:57;8.40;99.90
1626;DHT22;806;48.770;9.156;2023-12-14T16:35:24;8.40;99.90
1626;DHT22;806;48.770;9.156;2023-12-14T16:37:52;8.50;99.90